Time;durP1;ratioP1;P1;durP2;ratioP2;P2;SDS_P1;SDS_P2;PMS_P1;PMS_P2;Temp;Humidity;BMP_temperature;BMP_pressure;BME280_temperature;BME280_humidity;BME280_pressure;Samples;Min_cycle;Max_cycle;Signal;HPM_P1;HPM_P2
2022/09/22 00:00:42;;;;;;;5.65;4.15;;;9.80;99.90;;;;;;5073507;28;20040;-71
2022/09/22 00:03:08;;;;;;;10.35;4.53;;;;;;;;;;5072317;28;20443;-71
2022/09/22 00:05:34;;;;;;;5.50;4.00;;;;;;;;;;5072014;28;20406;-71
2022/09/22 00:08:00;;;;;;;4.18;3.67;;;9.80;99.90;;;;;;5071534;28;20101;-71
2022/09/22 00:10:27;;;;;;;7.68;3.67;;;9.70;99.90;;;;;;5071537;28;20040;-71
2022/09/22 00:12:54;;;;;;;6.55;4.10;;;9.60;99.90;;;;;;5071991;28;20045;-71
2022/09/22 00:15:20;;;;;;;5.55;3.67;;;9.50;99.90;;;;;;5071596;28;20470;-72
2022/09/22 00:17:46;;;;;;;5.50;3.58;;;;;;;;;;5071726;28;20068;-72
2022/09/22 00:20:12;;;;;;;5.95;3.30;;;;;;;;;;5072905;28;20052;-71
2022/09/22 00:22:41;;;;;;;5.28;3.60;;;9.50;99.90;;;;;;5071553;28;20056;-73
2022/09/22 00:25:07;;;;;;;4.65;3.50;;;9.40;99.90;;;;;;5071642;28;20051;-71
2022/09/22 00:27:34;;;;;;;6.93;3.75;;;9.50;99.90;;;;;;5072830;28;20040;-71
2022/09/22 00:30:00;;;;;;;6.72;3.40;;;;;;;;;;5072524;28;20486;-71
2022/09/22 00:32:26;;;;;;;5.90;3.08;;;9.40;99.90;;;;;;5071280;28;20041;-71
2022/09/22 00:34:51;;;;;;;6.22;3.42;;;9.30;99.90;;;;;;5072315;28;20040;-71
2022/09/22 00:37:17;;;;;;;6.25;3.22;;;9.30;99.90;;;;;;5071252;28;20040;-71
2022/09/22 00:39:43;;;;;;;6.15;3.45;;;9.40;99.90;;;;;;5072357;28;20082;-72
2022/09/22 00:42:11;;;;;;;6.25;3.47;;;9.50;99.90;;;;;;5054635;28;20072;-72
2022/09/22 00:44:43;;;;;;;6.43;3.40;;;9.50;99.90;;;;;;5072324;28;20076;-71
2022/09/22 00:47:28;;;;;;;4.63;3.30;;;9.20;99.90;;;;;;5072761;28;20032;-71
2022/09/22 00:50:16;;;;;;;7.07;3.40;;;9.20;99.90;;;;;;5072353;28;20649;-71
2022/09/22 00:52:53;;;;;;;6.72;3.42;;;9.30;99.90;;;;;;5054834;28;20040;-73
2022/09/22 00:55:33;;;;;;;6.88;3.60;;;9.30;99.90;;;;;;5072562;28;20075;-71
2022/09/22 00:58:01;;;;;;;4.50;3.42;;;9.50;99.90;;;;;;5071458;28;20394;-71
2022/09/22 01:00:27;;;;;;;8.02;3.83;;;9.40;99.90;;;;;;5072249;28;20044;-72
2022/09/22 01:02:56;;;;;;;4.63;3.25;;;9.10;99.90;;;;;;5072234;28;20028;-71
2022/09/22 01:05:24;;;;;;;4.68;3.22;;;9.20;99.90;;;;;;5070644;28;20127;-72
2022/09/22 01:07:50;;;;;;;6.03;3.40;;;;;;;;;;5070832;28;20514;-72
2022/09/22 01:10:16;;;;;;;9.38;4.22;;;9.20;99.90;;;;;;5070941;28;20517;-72
2022/09/22 01:12:54;;;;;;;4.63;3.38;;;9.20;99.90;;;;;;5072076;28;20040;-72
2022/09/22 01:15:45;;;;;;;4.75;3.40;;;9.20;99.90;;;;;;5053961;28;20125;-72
2022/09/22 01:18:11;;;;;;;4.60;3.33;;;;;;;;;;5070779;28;20037;-72
2022/09/22 01:21:09;;;;;;;5.88;2.83;;;9.30;99.90;;;;;;5071994;28;20513;-72
2022/09/22 01:24:12;;;;;;;6.40;3.28;;;9.10;99.90;;;;;;5070939;28;20041;-72
2022/09/22 01:27:03;;;;;;;8.10;3.60;;;9.00;99.90;;;;;;5070847;28;20040;-72
2022/09/22 01:29:49;;;;;;;7.80;3.95;;;9.10;99.90;;;;;;5070624;28;20045;-72
2022/09/22 01:32:28;;;;;;;5.50;3.38;;;9.10;99.90;;;;;;5070794;28;20036;-72
2022/09/22 01:35:03;;;;;;;7.63;3.63;;;9.10;99.90;;;;;;5070258;28;20578;-74
2022/09/22 01:37:43;;;;;;;6.82;3.80;;;9.10;99.90;;;;;;5071738;28;20547;-72
2022/09/22 01:40:15;;;;;;;5.70;3.22;;;9.00;99.90;;;;;;5053836;28;20090;-71
2022/09/22 01:42:55;;;;;;;7.70;4.40;;;8.90;99.90;;;;;;5070515;28;20076;-72
2022/09/22 01:45:28;;;;;;;5.07;2.90;;;9.00;99.90;;;;;;5070415;28;20045;-72
2022/09/22 01:48:01;;;;;;;8.98;4.22;;;9.00;99.90;;;;;;5071676;28;20472;-72
2022/09/22 01:50:36;;;;;;;6.40;3.67;;;8.90;99.90;;;;;;5053569;28;20102;-72
2022/09/22 01:53:08;;;;;;;8.68;3.63;;;8.90;99.90;;;;;;5070567;28;20275;-72
2022/09/22 01:55:38;;;;;;;6.22;3.63;;;8.90;99.90;;;;;;5071585;28;20039;-72
2022/09/22 01:58:12;;;;;;;5.30;3.60;;;9.00;99.90;;;;;;5070503;28;20153;-72
2022/09/22 02:00:42;;;;;;;5.28;3.70;;;8.70;99.90;;;;;;5075551;28;20573;-72
2022/09/22 02:03:29;;;;;;;6.22;3.38;;;8.80;99.90;;;;;;5074382;28;20066;-72
2022/09/22 02:06:09;;;;;;;4.00;3.38;;;8.80;99.90;;;;;;5074116;28;20044;-72
2022/09/22 02:08:44;;;;;;;7.50;3.78;;;8.70;99.90;;;;;;5057320;28;20041;-72
2022/09/22 02:11:15;;;;;;;6.63;3.33;;;8.80;99.90;;;;;;5075469;28;20243;-72
2022/09/22 02:13:45;;;;;;;5.97;3.30;;;8.70;99.90;;;;;;5073990;28;20040;-70
2022/09/22 02:16:13;;;;;;;6.97;3.60;;;8.70;99.90;;;;;;5075409;28;20051;-72
2022/09/22 02:18:48;;;;;;;7.05;3.55;;;8.70;99.90;;;;;;5077296;28;20033;-72
2022/09/22 02:21:15;;;;;;;6.28;3.22;;;8.60;99.90;;;;;;5078464;28;20072;-72
2022/09/22 02:23:44;;;;;;;8.35;3.58;;;8.50;99.90;;;;;;5078247;28;20036;-72
2022/09/22 02:26:14;;;;;;;8.32;3.40;;;8.40;99.90;;;;;;5074575;28;20036;-72
2022/09/22 02:28:42;;;;;;;5.22;3.22;;;8.70;99.90;;;;;;5073883;28;20041;-72
2022/09/22 02:31:09;;;;;;;5.35;3.53;;;8.60;99.90;;;;;;5075164;28;20441;-72
2022/09/22 02:33:37;;;;;;;5.20;4.00;;;8.60;99.90;;;;;;5075063;28;20036;-74
2022/09/22 02:36:23;;;;;;;7.95;3.30;;;8.40;99.90;;;;;;5074849;28;20090;-72
2022/09/22 02:39:08;;;;;;;4.35;3.22;;;8.30;99.90;;;;;;5075127;28;20032;-72
2022/09/22 02:41:37;;;;;;;5.38;3.05;;;8.30;99.90;;;;;;5073715;28;20103;-71
2022/09/22 02:44:11;;;;;;;6.13;3.25;;;8.60;99.90;;;;;;5073311;28;20048;-71
2022/09/22 02:46:44;;;;;;;3.67;3.17;;;8.40;99.90;;;;;;5072873;28;20048;-71
2022/09/22 02:49:15;;;;;;;5.30;3.10;;;8.40;99.90;;;;;;5073467;28;20567;-72
2022/09/22 02:51:41;;;;;;;7.65;3.75;;;8.50;99.90;;;;;;5073217;28;20115;-72
2022/09/22 02:54:07;;;;;;;4.20;2.80;;;;;;;;;;5072978;28;20040;-71
2022/09/22 02:56:33;;;;;;;5.30;3.00;;;8.40;99.90;;;;;;5073209;28;20040;-71
2022/09/22 02:58:59;;;;;;;3.92;3.17;;;;;;;;;;5073216;28;20040;-72
2022/09/22 03:01:25;;;;;;;4.68;2.85;;;8.30;99.90;;;;;;5073431;28;20055;-72
2022/09/22 03:03:51;;;;;;;6.53;3.80;;;;;;;;;;5072883;28;20040;-74
2022/09/22 03:06:17;;;;;;;4.07;2.78;;;8.20;99.90;;;;;;5074240;28;20517;-72
2022/09/22 03:08:43;;;;;;;8.45;3.08;;;;;;;;;;5056207;28;20040;-73
2022/09/22 03:11:09;;;;;;;6.85;3.10;;;;;;;;;;5073040;28;20043;-73
2022/09/22 03:13:34;;;;;;;4.32;2.75;;;8.30;99.90;;;;;;5072821;28;20041;-71
2022/09/22 03:16:00;;;;;;;4.72;2.80;;;8.30;99.90;;;;;;5072689;28;20501;-72
2022/09/22 03:18:26;;;;;;;6.47;3.10;;;8.30;99.90;;;;;;5074114;28;20066;-72
2022/09/22 03:20:52;;;;;;;5.03;3.00;;;;;;;;;;5074607;28;20036;-71
2022/09/22 03:23:18;;;;;;;5.18;2.83;;;;;;;;;;5074571;28;20040;-72
2022/09/22 03:25:44;;;;;;;7.47;2.97;;;;;;;;;;5072460;28;20040;-74
2022/09/22 03:28:09;;;;;;;4.45;3.17;;;8.10;99.90;;;;;;5074044;28;20528;-71
2022/09/22 03:30:36;;;;;;;5.95;3.13;;;;;;;;;;5072688;28;20044;-72
2022/09/22 03:33:02;;;;;;;5.18;3.22;;;;;;;;;;5072873;28;20070;-71
2022/09/22 03:35:28;;;;;;;6.28;3.30;;;;;;;;;;5073445;28;20041;-72
2022/09/22 03:37:53;;;;;;;3.83;2.55;;;8.10;99.90;;;;;;5072486;28;20113;-72
2022/09/22 03:40:21;;;;;;;5.53;3.75;;;8.10;99.90;;;;;;5072411;28;20559;-71
2022/09/22 03:42:47;;;;;;;4.32;2.97;;;;;;;;;;5072335;28;20044;-72
2022/09/22 03:45:13;;;;;;;5.50;2.70;;;;;;;;;;5071935;28;20047;-73
2022/09/22 03:47:40;;;;;;;7.57;2.88;;;;;;;;;;5073433;28;20055;-72
2022/09/22 03:50:06;;;;;;;3.78;3.05;;;8.00;99.90;;;;;;5055617;28;20048;-71
2022/09/22 03:52:32;;;;;;;4.10;2.90;;;8.20;99.90;;;;;;5073585;28;20040;-72
2022/09/22 03:54:58;;;;;;;4.40;2.50;;;8.00;99.90;;;;;;5071976;28;20037;-71
2022/09/22 03:57:25;;;;;;;7.70;3.33;;;;;;;;;;5072218;28;20044;-71
2022/09/22 03:59:51;;;;;;;5.72;3.20;;;8.00;99.90;;;;;;5072136;28;20051;-70
2022/09/22 04:02:17;;;;;;;9.82;2.85;;;8.00;99.90;;;;;;5066951;28;20047;-71
2022/09/22 04:04:43;;;;;;;5.63;3.10;;;;;;;;;;5060272;28;20449;-71
2022/09/22 04:07:08;;;;;;;6.10;3.55;;;8.10;99.90;;;;;;5063528;28;20452;-72
2022/09/22 04:09:34;;;;;;;6.03;2.90;;;7.90;99.90;;;;;;5072840;28;20036;-72
2022/09/22 04:12:00;;;;;;;4.90;2.63;;;;;;;;;;5055331;28;20036;-72
2022/09/22 04:14:26;;;;;;;4.75;2.85;;;8.00;99.90;;;;;;5072764;28;20098;-72
2022/09/22 04:16:53;;;;;;;4.57;2.95;;;;;;;;;;5063056;28;20484;-72
2022/09/22 04:19:19;;;;;;;5.07;2.70;;;;;;;;;;5057989;28;20032;-72
2022/09/22 04:21:45;;;;;;;4.05;2.83;;;;;;;;;;5072619;28;20036;-72
2022/09/22 04:24:11;;;;;;;5.32;2.63;;;;;;;;;;5071380;28;20498;-73
2022/09/22 04:26:37;;;;;;;6.32;2.83;;;7.90;99.90;;;;;;5059478;28;20040;-72
2022/09/22 04:29:11;;;;;;;5.72;3.13;;;7.80;99.90;;;;;;5071182;28;20040;-71
2022/09/22 04:31:36;;;;;;;5.03;2.90;;;8.00;99.90;;;;;;5043148;28;20053;-70
2022/09/22 04:34:02;;;;;;;7.43;3.00;;;8.00;99.90;;;;;;5057609;28;20383;-70
2022/09/22 04:36:28;;;;;;;8.23;3.13;;;8.00;99.90;;;;;;5075708;28;20036;-70
2022/09/22 04:38:54;;;;;;;4.97;2.53;;;;;;;;;;5079603;28;20401;-70
2022/09/22 04:41:20;;;;;;;7.38;3.13;;;;;;;;;;5080854;28;20059;-72
2022/09/22 04:43:46;;;;;;;7.82;3.63;;;;;;;;;;5071750;28;20417;-71
2022/09/22 04:46:12;;;;;;;8.07;2.83;;;;;;;;;;5073100;28;20041;-71
2022/09/22 04:48:38;;;;;;;6.82;2.67;;;;;;;;;;5058455;28;20050;-72
2022/09/22 04:51:04;;;;;;;5.13;2.90;;;;;;;;;;5069676;28;20048;-71
2022/09/22 04:53:30;;;;;;;4.40;2.97;;;;;;;;;;5076226;28;20067;-71
2022/09/22 04:55:56;;;;;;;5.13;3.17;;;;;;;;;;5079010;28;20490;-71
2022/09/22 04:58:22;;;;;;;4.82;2.63;;;;;;;;;;5078512;28;20063;-71
2022/09/22 05:00:48;;;;;;;5.53;3.00;;;;;;;;;;5076200;28;20045;-70
2022/09/22 05:03:15;;;;;;;5.28;3.25;;;;;;;;;;5070799;28;20041;-71
2022/09/22 05:05:42;;;;;;;4.38;2.85;;;7.90;99.90;;;;;;5074095;28;20048;-71
2022/09/22 05:08:09;;;;;;;10.10;3.15;;;;;;;;;;5063984;28;20452;-71
2022/09/22 05:10:35;;;;;;;6.90;3.47;;;7.90;99.90;;;;;;5077536;28;20074;-71
2022/09/22 05:13:01;;;;;;;4.18;3.08;;;;;;;;;;5079230;28;20036;-71
2022/09/22 05:15:31;;;;;;;5.95;2.97;;;;;;;;;;5078924;28;20040;-70
2022/09/22 05:17:57;;;;;;;6.05;2.90;;;7.70;99.90;;;;;;5079235;28;20040;-71
2022/09/22 05:20:23;;;;;;;6.65;3.70;;;;;;;;;;5070599;28;20107;-71
2022/09/22 05:22:48;;;;;;;4.85;2.70;;;7.80;99.90;;;;;;5078420;28;20474;-71
2022/09/22 05:25:16;;;;;;;4.72;2.63;;;7.80;99.90;;;;;;5062470;28;20044;-71
2022/09/22 05:27:46;;;;;;;5.18;3.55;;;7.70;99.90;;;;;;5060833;28;20082;-71
2022/09/22 05:30:13;;;;;;;5.78;3.28;;;;;;;;;;5061398;28;20028;-71
2022/09/22 05:32:43;;;;;;;7.90;3.20;;;7.80;99.90;;;;;;5062675;28;20587;-75
2022/09/22 05:35:09;;;;;;;6.50;3.22;;;7.70;99.90;;;;;;5056476;28;20075;-71
2022/09/22 05:37:35;;;;;;;9.77;3.67;;;7.60;99.90;;;;;;5063134;28;20036;-71
2022/09/22 05:40:01;;;;;;;10.85;4.15;;;;;;;;;;5061936;28;20131;-71
2022/09/22 05:42:27;;;;;;;7.25;2.85;;;;;;;;;;5044189;28;20068;-71
2022/09/22 05:44:53;;;;;;;7.28;3.80;;;;;;;;;;5038847;28;20075;-72
2022/09/22 05:47:19;;;;;;;5.93;3.63;;;;;;;;;;5057572;28;20694;-71
2022/09/22 05:49:45;;;;;;;5.18;3.72;;;7.60;99.90;;;;;;5054799;28;20036;-70
2022/09/22 05:52:11;;;;;;;8.07;3.78;;;;;;;;;;5053771;28;20040;-71
2022/09/22 05:54:37;;;;;;;9.65;4.40;;;;;;;;;;5071197;28;20043;-71
2022/09/22 05:57:02;;;;;;;7.93;3.72;;;8.00;99.90;;;;;;5070103;28;20044;-72
2022/09/22 05:59:28;;;;;;;7.32;3.80;;;7.90;99.90;;;;;;5069565;28;20040;-72
2022/09/22 06:01:53;;;;;;;9.15;4.20;;;7.90;99.90;;;;;;5071567;28;20037;-72
2022/09/22 06:04:19;;;;;;;7.93;3.88;;;8.00;99.90;;;;;;5071250;28;20198;-72
2022/09/22 06:06:45;;;;;;;7.00;4.25;;;;;;;;;;5070351;28;20039;-72
2022/09/22 06:09:11;;;;;;;9.30;4.43;;;8.00;99.90;;;;;;5069990;28;20051;-72
2022/09/22 06:11:37;;;;;;;8.68;4.45;;;8.10;99.90;;;;;;5070007;28;20040;-72
2022/09/22 06:14:03;;;;;;;8.98;4.03;;;;;;;;;;5071258;28;20045;-74
2022/09/22 06:16:29;;;;;;;6.97;4.47;;;8.30;99.90;;;;;;5071449;28;20094;-72
2022/09/22 06:18:55;;;;;;;12.52;4.72;;;8.20;99.90;;;;;;5070109;28;20432;-72
2022/09/22 06:21:20;;;;;;;9.98;4.53;;;8.10;99.90;;;;;;5071356;28;20036;-72
2022/09/22 06:23:46;;;;;;;9.60;4.70;;;8.40;99.90;;;;;;5071040;28;20094;-72
2022/09/22 06:26:12;;;;;;;8.43;4.20;;;8.50;99.90;;;;;;5069866;28;20498;-72
2022/09/22 06:28:38;;;;;;;8.55;4.50;;;;;;;;;;5071271;28;20037;-74
2022/09/22 06:31:04;;;;;;;9.98;4.80;;;;;;;;;;5069851;28;20051;-75
2022/09/22 06:33:30;;;;;;;7.85;4.40;;;;;;;;;;5071242;28;20033;-74
2022/09/22 06:35:57;;;;;;;14.07;4.95;;;;;;;;;;5052886;28;20123;-74
2022/09/22 06:38:23;;;;;;;10.10;4.65;;;;;;;;;;5069959;28;20051;-72
2022/09/22 06:40:50;;;;;;;12.45;5.53;;;8.70;99.90;;;;;;5070202;28;20040;-72
2022/09/22 06:43:24;;;;;;;9.38;5.00;;;8.70;99.90;;;;;;5069922;28;20174;-72
2022/09/22 06:45:50;;;;;;;9.70;4.80;;;8.90;99.90;;;;;;5072390;28;20125;-72
2022/09/22 06:48:17;;;;;;;8.68;4.45;;;;;;;;;;5056972;28;20055;-75
2022/09/22 06:50:47;;;;;;;9.27;4.63;;;8.90;99.90;;;;;;5073132;28;20050;-75
2022/09/22 06:53:13;;;;;;;7.53;4.35;;;9.00;99.90;;;;;;5073663;28;20044;-72
2022/09/22 06:55:42;;;;;;;6.18;3.90;;;8.90;99.90;;;;;;5073242;28;20112;-72
2022/09/22 06:58:08;;;;;;;8.30;4.72;;;9.00;99.90;;;;;;5073206;28;20041;-72
2022/09/22 07:00:34;;;;;;;9.25;5.10;;;9.30;99.90;;;;;;5072647;28;20129;-72
2022/09/22 07:03:07;;;;;;;9.73;5.28;;;9.30;99.90;;;;;;5074630;28;20078;-73
2022/09/22 07:05:34;;;;;;;7.20;4.93;;;9.40;99.90;;;;;;5072896;28;20505;-72
2022/09/22 07:08:00;;;;;;;8.30;4.70;;;9.50;99.90;;;;;;5072818;28;20115;-72
2022/09/22 07:10:26;;;;;;;9.57;4.50;;;9.60;99.90;;;;;;5072945;28;20517;-73
2022/09/22 07:12:53;;;;;;;6.28;3.83;;;;;;;;;;5073163;28;20127;-73
2022/09/22 07:15:19;;;;;;;8.05;4.43;;;;;;;;;;5073998;28;20040;-73
2022/09/22 07:17:45;;;;;;;12.77;4.68;;;;;;;;;;5073158;28;20515;-71
2022/09/22 07:20:11;;;;;;;6.78;4.20;;;10.10;99.90;;;;;;5074461;28;20084;-71
2022/09/22 07:22:38;;;;;;;6.60;4.07;;;;;;;;;;5073188;28;20072;-74
2022/09/22 07:25:06;;;;;;;7.97;4.60;;;10.00;99.90;;;;;;5074184;28;20524;-71
2022/09/22 07:27:32;;;;;;;5.30;3.65;;;10.30;99.90;;;;;;5073054;28;20056;-72
2022/09/22 07:29:57;;;;;;;6.60;4.32;;;10.30;99.90;;;;;;5072750;28;20044;-71
2022/09/22 07:32:29;;;;;;;7.75;4.30;;;;;;;;;;5073115;28;20379;-73
2022/09/22 07:34:55;;;;;;;7.43;4.05;;;10.60;99.90;;;;;;5073966;28;20044;-72
2022/09/22 07:37:22;;;;;;;9.40;4.55;;;;;;;;;;5073956;28;20094;-75
2022/09/22 07:39:48;;;;;;;7.63;3.80;;;10.90;99.90;;;;;;5073792;28;20076;-72
2022/09/22 07:42:15;;;;;;;8.57;3.80;;;10.90;99.90;;;;;;5072665;28;20068;-72
2022/09/22 07:50:10;;;;;;;8.15;4.20;;;11.40;99.90;;;;;;5072068;28;20044;-72
2022/09/22 07:52:36;;;;;;;4.82;3.22;;;11.30;99.90;;;;;;5073379;28;20490;-72
2022/09/22 07:55:02;;;;;;;7.43;3.97;;;11.70;99.90;;;;;;5071872;28;20037;-71
2022/09/22 07:57:32;;;;;;;6.20;4.00;;;;;;;;;;5071625;28;20044;-74
2022/09/22 07:59:58;;;;;;;6.47;3.40;;;;;;;;;;5074363;28;20325;-71
2022/09/22 08:02:26;;;;;;;6.18;3.22;;;;;;;;;;5072963;28;20036;-75
2022/09/22 08:04:52;;;;;;;8.60;3.42;;;12.10;99.90;;;;;;5072611;28;20112;-72
2022/09/22 08:07:17;;;;;;;4.85;2.65;;;12.30;99.90;;;;;;5072732;28;20486;-73
2022/09/22 08:09:43;;;;;;;7.65;3.00;;;12.20;99.90;;;;;;5071739;28;20410;-71
2022/09/22 08:12:11;;;;;;;8.77;3.55;;;;;;;;;;5071946;28;20068;-71
2022/09/22 08:14:37;;;;;;;6.15;3.03;;;;;;;;;;5072961;28;20291;-71
2022/09/22 08:17:02;;;;;;;8.75;3.65;;;12.70;99.90;;;;;;5073009;28;20048;-72
2022/09/22 08:19:29;;;;;;;6.28;2.33;;;;;;;;;;5071773;28;20036;-72
2022/09/22 08:21:55;;;;;;;4.35;2.60;;;;;;;;;;5071641;28;20052;-71
2022/09/22 08:24:21;;;;;;;4.57;2.85;;;13.00;99.90;;;;;;5072761;28;20051;-71
2022/09/22 08:26:49;;;;;;;5.45;2.38;;;13.20;99.90;;;;;;5071698;28;20513;-71
2022/09/22 08:29:14;;;;;;;6.32;2.70;;;13.30;99.90;;;;;;5071309;28;20105;-72
2022/09/22 08:31:41;;;;;;;9.85;3.10;;;13.30;99.90;;;;;;5054717;28;20495;-71
2022/09/22 08:34:08;;;;;;;4.70;3.20;;;13.40;99.90;;;;;;5071014;28;20517;-72
2022/09/22 08:36:33;;;;;;;3.88;2.40;;;13.50;99.90;;;;;;5072712;28;20043;-71
2022/09/22 08:39:00;;;;;;;5.28;2.75;;;13.60;99.90;;;;;;5071312;28;20115;-72
2022/09/22 08:41:37;;;;;;;4.57;2.45;;;13.50;99.90;;;;;;5071189;28;20047;-74
2022/09/22 08:44:03;;;;;;;6.30;2.60;;;;;;;;;;5070940;28;20057;-73
2022/09/22 08:46:31;;;;;;;4.97;2.70;;;13.80;99.90;;;;;;5072373;28;20178;-74
2022/09/22 08:52:02;;;;;;;5.13;2.47;;;14.10;99.90;;;;;;5071020;28;20048;-72
2022/09/22 08:54:31;;;;;;;5.47;2.33;;;14.30;99.90;;;;;;5070812;28;20068;-72
2022/09/22 08:56:57;;;;;;;5.68;2.95;;;;;;;;;;5072255;28;20398;-72
2022/09/22 08:59:30;;;;;;;9.10;3.35;;;14.40;99.90;;;;;;5070557;28;20036;-74
2022/09/22 09:02:34;;;;;;;7.22;2.70;;;14.40;99.90;;;;;;5070915;28;20083;-72
2022/09/22 09:05:47;;;;;;;5.18;2.60;;;14.40;99.90;;;;;;5069574;28;20044;-72
2022/09/22 09:08:34;;;;;;;5.55;2.80;;;14.70;99.90;;;;;;5012138;28;20124;-71
2022/09/22 09:11:00;;;;;;;4.70;2.20;;;;;;;;;;5013330;28;20128;-73
2022/09/22 09:13:35;;;;;;;4.82;2.67;;;14.90;99.90;;;;;;5051422;28;20130;-73
2022/09/22 09:16:23;;;;;;;2.75;1.90;;;14.90;99.90;;;;;;5071002;28;20040;-72
2022/09/22 09:19:11;;;;;;;10.27;2.70;;;15.10;99.90;;;;;;5071336;28;20406;-72
2022/09/22 09:21:43;;;;;;;5.22;2.33;;;15.20;99.90;;;;;;5071528;28;20051;-72
2022/09/22 09:24:17;;;;;;;6.70;2.30;;;15.20;99.90;;;;;;5072196;28;20120;-72
2022/09/22 09:26:45;;;;;;;6.55;2.50;;;15.20;99.90;;;;;;5070806;28;20123;-72
2022/09/22 09:29:16;;;;;;;5.47;1.92;;;15.40;99.90;;;;;;5071833;28;20544;-74
2022/09/22 09:31:51;;;;;;;7.85;2.22;;;15.40;99.90;;;;;;5070582;28;20123;-72
2022/09/22 09:34:20;;;;;;;5.70;2.55;;;15.40;99.90;;;;;;5053982;28;20436;-72
2022/09/22 09:36:51;;;;;;;7.53;2.60;;;15.30;99.90;;;;;;5071918;28;20044;-72
2022/09/22 09:39:46;;;;;;;8.38;2.92;;;15.60;99.90;;;;;;5070777;28;20044;-72
2022/09/22 09:42:35;;;;;;;8.35;2.47;;;15.70;99.90;;;;;;5041316;28;20040;-74
2022/09/22 09:45:03;;;;;;;6.15;2.55;;;16.90;99.90;;;;;;5053632;28;20093;-71
2022/09/22 09:47:40;;;;;;;5.00;3.15;;;15.80;99.90;;;;;;5070761;28;20063;-71
2022/09/22 09:50:09;;;;;;;6.32;2.70;;;15.90;99.90;;;;;;5070328;28;20136;-73
2022/09/22 09:52:37;;;;;;;9.40;3.17;;;15.80;99.90;;;;;;5070288;28;20165;-71
2022/09/22 09:55:20;;;;;;;3.95;2.65;;;16.20;99.90;;;;;;5070074;28;20036;-73
2022/09/22 10:01:12;;;;;;;6.97;3.10;;;16.10;99.90;;;;;;5012971;28;20486;-76
2022/09/22 10:03:47;;;;;;;10.05;3.92;;;16.10;99.90;;;;;;5029156;28;20052;-73
2022/09/22 10:06:13;;;;;;;7.50;3.78;;;16.20;99.90;;;;;;5057550;28;20055;-73
2022/09/22 10:08:49;;;;;;;5.63;3.40;;;16.30;99.90;;;;;;5070054;28;20135;-73
2022/09/22 10:11:15;;;;;;;6.15;3.08;;;16.50;99.90;;;;;;5053303;28;20040;-73
2022/09/22 10:13:43;;;;;;;8.13;3.53;;;16.40;99.90;;;;;;5070319;28;20056;-73
2022/09/22 10:16:34;;;;;;;5.38;3.80;;;16.60;99.90;;;;;;5070112;28;20041;-73
2022/09/22 10:19:21;;;;;;;8.48;4.13;;;16.50;99.90;;;;;;5071462;28;20036;-73
2022/09/22 10:21:47;;;;;;;8.43;3.33;;;16.40;99.90;;;;;;5074282;28;20152;-73
2022/09/22 10:24:30;;;;;;;7.80;3.65;;;16.40;99.90;;;;;;5074920;28;20058;-74
2022/09/22 10:26:56;;;;;;;6.87;4.20;;;16.50;99.90;;;;;;5073764;28;20049;-73
2022/09/22 10:29:22;;;;;;;10.40;4.25;;;16.60;99.90;;;;;;5075042;28;20506;-73
2022/09/22 10:32:10;;;;;;;7.35;3.90;;;16.50;99.90;;;;;;5073489;28;20052;-73
2022/09/22 10:34:37;;;;;;;8.43;4.80;;;16.90;99.90;;;;;;5073271;28;20045;-74
2022/09/22 10:37:09;;;;;;;8.75;3.92;;;16.90;99.90;;;;;;5073768;28;20075;-74
2022/09/22 10:40:06;;;;;;;13.38;5.38;;;16.90;99.90;;;;;;5074721;28;20057;-71
2022/09/22 10:42:42;;;;;;;7.80;5.05;;;16.90;99.90;;;;;;5056461;28;20063;-71
2022/09/22 10:45:18;;;;;;;10.73;4.88;;;17.00;99.90;;;;;;5073161;28;20525;-72
2022/09/22 10:47:59;;;;;;;8.50;4.82;;;17.10;99.90;;;;;;5073444;28;20039;-72
2022/09/22 10:50:43;;;;;;;7.22;4.40;;;17.10;99.90;;;;;;5074535;28;20401;-72
2022/09/22 10:53:50;;;;;;;8.43;5.43;;;16.90;99.90;;;;;;5073291;28;20032;-72
2022/09/22 10:56:40;;;;;;;6.70;4.95;;;17.00;99.90;;;;;;5065362;28;20045;-73
2022/09/22 10:59:33;;;;;;;12.52;4.70;;;17.00;99.90;;;;;;5073100;28;20041;-72
2022/09/22 11:02:30;;;;;;;6.95;4.45;;;17.00;99.80;;;;;;5074569;28;20036;-74
2022/09/22 11:14:13;;;;;;;7.45;3.70;;;17.10;99.30;;;;;;5074067;28;20471;-72
2022/09/22 11:16:59;;;;;;;6.47;4.05;;;17.30;99.80;;;;;;5073154;28;20464;-72
2022/09/22 11:19:43;;;;;;;10.45;4.43;;;17.40;99.90;;;;;;5072923;28;20127;-72
2022/09/22 11:22:27;;;;;;;9.25;3.70;;;17.50;98.40;;;;;;5074062;28;20566;-72
2022/09/22 11:25:14;;;;;;;11.60;4.65;;;17.60;99.40;;;;;;5055757;28;20474;-72
2022/09/22 11:28:03;;;;;;;6.70;4.20;;;17.50;98.70;;;;;;5072813;28;20139;-72
2022/09/22 11:30:43;;;;;;;6.25;3.83;;;17.90;99.80;;;;;;5044316;28;20110;-72
2022/09/22 11:33:12;;;;;;;6.50;4.03;;;18.60;98.90;;;;;;5073889;28;20047;-72
2022/09/22 11:36:13;;;;;;;7.97;4.30;;;17.90;98.80;;;;;;5055898;28;20036;-75
2022/09/22 11:39:07;;;;;;;4.93;3.78;;;17.90;98.50;;;;;;5072496;28;20123;-73
2022/09/22 11:41:48;;;;;;;5.97;3.83;;;18.00;98.30;;;;;;5073972;28;20051;-72
2022/09/22 11:44:22;;;;;;;4.97;3.72;;;17.90;98.10;;;;;;5072179;28;20045;-72
2022/09/22 11:46:56;;;;;;;8.40;4.25;;;18.00;98.20;;;;;;5073858;28;20052;-72
2022/09/22 11:49:34;;;;;;;7.28;4.00;;;18.20;98.40;;;;;;5072321;28;20055;-71
2022/09/22 11:52:12;;;;;;;9.25;4.10;;;18.30;98.20;;;;;;5072282;28;20041;-72
2022/09/22 11:54:46;;;;;;;8.80;4.75;;;18.50;97.90;;;;;;5071928;28;20040;-72
2022/09/22 11:57:16;;;;;;;8.48;3.53;;;18.20;97.80;;;;;;5072143;28;20127;-72
2022/09/22 12:00:03;;;;;;;7.35;3.63;;;18.00;98.10;;;;;;5072036;28;20115;-72
2022/09/22 12:02:37;;;;;;;11.98;5.40;;;18.00;97.60;;;;;;5073334;28;20090;-71
2022/09/22 12:05:14;;;;;;;8.18;4.55;;;18.20;98.20;;;;;;5072915;28;20514;-72
2022/09/22 12:08:09;;;;;;;7.10;4.28;;;18.30;99.30;;;;;;5071957;28;20494;-72
2022/09/22 12:10:41;;;;;;;5.22;4.00;;;18.50;98.10;;;;;;5055165;28;20051;-72
2022/09/22 12:13:15;;;;;;;6.93;4.80;;;18.30;97.60;;;;;;5073030;28;20028;-72
2022/09/22 12:16:00;;;;;;;10.02;4.13;;;18.30;97.30;;;;;;5072928;28;20043;-72
2022/09/22 12:18:33;;;;;;;8.15;4.20;;;18.30;97.20;;;;;;5071776;28;20037;-72
2022/09/22 12:21:09;;;;;;;6.65;4.18;;;18.30;98.10;;;;;;5071748;28;20123;-72
2022/09/22 12:23:39;;;;;;;8.68;4.68;;;18.40;97.60;;;;;;5071811;28;20044;-71
2022/09/22 12:26:08;;;;;;;7.13;4.38;;;18.20;97.30;;;;;;5071305;28;20040;-72
2022/09/22 12:28:42;;;;;;;6.03;3.92;;;18.50;97.80;;;;;;5054756;28;20052;-72
2022/09/22 12:31:14;;;;;;;6.88;3.97;;;18.50;97.40;;;;;;5054696;28;20052;-72
2022/09/22 12:33:50;;;;;;;8.00;4.05;;;18.90;97.80;;;;;;5071330;28;20036;-72
2022/09/22 12:36:26;;;;;;;9.68;3.92;;;18.60;96.50;;;;;;5072423;28;20090;-72
2022/09/22 12:38:51;;;;;;;6.80;3.90;;;18.60;97.40;;;;;;5072729;28;20082;-72
2022/09/22 12:41:18;;;;;;;12.85;4.93;;;18.40;97.80;;;;;;5072688;28;20040;-72
2022/09/22 12:43:44;;;;;;;7.10;4.38;;;18.30;98.30;;;;;;5070968;28;20094;-71
2022/09/22 12:46:31;;;;;;;6.85;3.95;;;18.40;97.20;;;;;;5071329;28;20532;-72
2022/09/22 12:48:56;;;;;;;6.40;3.83;;;16.90;97.80;;;;;;5072830;28;20402;-72
2022/09/22 12:51:25;;;;;;;6.00;4.00;;;18.90;97.90;;;;;;5072537;28;20037;-72
2022/09/22 12:54:11;;;;;;;7.55;3.88;;;18.80;98.10;;;;;;5071032;28;20036;-72
2022/09/22 12:56:56;;;;;;;9.68;3.80;;;18.90;97.80;;;;;;5071336;28;20072;-72
2022/09/22 12:59:34;;;;;;;6.43;3.95;;;18.80;96.60;;;;;;5070684;28;20502;-72
2022/09/22 13:02:28;;;;;;;7.57;3.72;;;18.80;97.10;;;;;;5071014;28;20481;-72
2022/09/22 13:04:54;;;;;;;9.48;5.13;;;18.70;97.30;;;;;;5070056;28;20083;-72
2022/09/22 13:07:39;;;;;;;9.68;4.38;;;19.40;97.70;;;;;;5054286;28;20072;-72
2022/09/22 13:10:23;;;;;;;7.97;3.88;;;19.00;97.60;;;;;;5071930;28;20076;-72
2022/09/22 13:13:20;;;;;;;6.15;3.38;;;19.90;97.90;;;;;;5070959;28;20097;-72
2022/09/22 13:15:48;;;;;;;11.32;3.60;;;19.00;97.00;;;;;;5069329;28;20045;-72
2022/09/22 13:18:35;;;;;;;8.85;4.13;;;19.40;97.10;;;;;;5070502;28;20037;-72
2022/09/22 13:21:13;;;;;;;7.57;3.63;;;19.10;96.90;;;;;;5070806;28;20056;-72
2022/09/22 13:23:48;;;;;;;7.03;4.22;;;19.10;96.90;;;;;;5070803;28;20558;-72
2022/09/22 13:26:15;;;;;;;8.00;4.18;;;18.80;96.80;;;;;;5070536;28;20059;-73
2022/09/22 13:28:41;;;;;;;7.07;4.35;;;18.90;98.00;;;;;;5071788;28;20045;-73
2022/09/22 13:31:16;;;;;;;7.75;4.10;;;20.30;98.10;;;;;;5071881;28;20055;-73
2022/09/22 13:33:43;;;;;;;9.82;4.38;;;18.90;97.50;;;;;;5070397;28;20040;-72
2022/09/22 13:36:17;;;;;;;6.57;3.70;;;18.70;97.30;;;;;;5070213;28;20052;-73
2022/09/22 13:38:49;;;;;;;7.47;3.30;;;18.90;96.60;;;;;;5053948;28;20120;-73
2022/09/22 13:41:18;;;;;;;5.57;3.43;;;19.10;97.40;;;;;;5054351;28;20086;-73
2022/09/22 13:43:47;;;;;;;6.07;3.45;;;19.20;97.50;;;;;;5070164;28;20279;-73
2022/09/22 13:46:24;;;;;;;12.38;3.95;;;19.10;97.40;;;;;;5070076;28;20048;-73
2022/09/22 13:48:54;;;;;;;7.03;3.33;;;19.80;97.00;;;;;;5053440;28;20105;-72
2022/09/22 13:51:20;;;;;;;4.97;2.80;;;19.10;97.50;;;;;;5069937;28;20055;-72
2022/09/22 13:53:51;;;;;;;8.00;3.03;;;19.20;97.60;;;;;;5070163;28;20063;-72
2022/09/22 13:56:19;;;;;;;4.65;3.20;;;19.00;97.40;;;;;;5074024;28;20041;-72
2022/09/22 13:58:47;;;;;;;9.07;3.42;;;19.00;97.30;;;;;;5073947;28;20089;-72